createdAt,value
2018-08-07T00:09:16.751Z,5.53
2018-08-07T00:29:00.481Z,6.00
2018-08-07T00:31:28.574Z,5.57
2018-08-07T00:33:56.702Z,5.90
2018-08-07T00:36:24.985Z,6.67
2018-08-07T00:38:53.085Z,6.40
2018-08-07T00:41:21.254Z,5.93
2018-08-07T00:43:49.376Z,6.43
2018-08-07T00:46:17.498Z,6.30
2018-08-07T00:48:45.553Z,6.13
2018-08-07T00:51:13.682Z,6.10
2018-08-07T00:53:41.743Z,5.90
2018-08-07T00:56:09.833Z,7.10
2018-08-07T00:58:37.948Z,6.10
2018-08-07T01:01:06.300Z,6.90
2018-08-07T01:20:49.999Z,7.00
2018-08-07T01:23:18.236Z,7.63
2018-08-07T01:25:46.326Z,8.50
2018-08-07T01:28:14.382Z,7.00
2018-08-07T01:30:42.449Z,7.77
2018-08-07T01:33:10.530Z,7.60
2018-08-07T01:52:54.794Z,7.50
2018-08-07T01:55:24.791Z,7.67
2018-08-07T01:57:52.989Z,6.53
2018-08-07T02:00:21.247Z,6.93
2018-08-07T02:02:49.789Z,7.50
2018-08-07T02:05:17.962Z,7.00
2018-08-07T02:07:46.039Z,7.10
2018-08-07T02:10:15.722Z,6.93
2018-08-07T02:12:43.820Z,6.80
2018-08-07T02:15:12.632Z,6.63
2018-08-07T02:17:40.836Z,7.77
2018-08-07T02:20:16.570Z,6.97
2018-08-07T02:22:45.246Z,6.90
2018-08-07T02:25:15.829Z,7.47
2018-08-07T02:27:44.661Z,6.60
2018-08-07T02:30:13.762Z,6.83
2018-08-07T02:32:41.985Z,6.80
2018-08-07T02:35:11.458Z,7.47
2018-08-07T02:37:40.840Z,7.53
2018-08-07T02:40:09.949Z,7.53
2018-08-07T02:42:38.053Z,7.33
2018-08-07T02:45:08.543Z,7.57
2018-08-07T02:47:36.666Z,6.80
2018-08-07T02:50:05.503Z,7.80
2018-08-07T02:52:33.582Z,6.90
2018-08-07T02:55:01.687Z,6.87
2018-08-07T02:57:30.210Z,7.50
2018-08-07T02:59:58.290Z,7.40
2018-08-07T03:02:26.395Z,6.97
2018-08-07T03:04:54.480Z,7.53
2018-08-07T03:07:22.707Z,7.53
2018-08-07T03:09:50.883Z,10.33
2018-08-07T03:12:18.965Z,7.10
2018-08-07T03:14:47.034Z,8.37
2018-08-07T03:17:15.192Z,7.83
2018-08-07T03:19:43.604Z,7.93
2018-08-07T03:22:11.722Z,7.13
2018-08-07T03:24:40.186Z,7.93
2018-08-07T03:27:08.268Z,7.40
2018-08-07T03:29:36.654Z,7.60
2018-08-07T03:32:04.771Z,7.20
2018-08-07T03:34:32.962Z,7.87
2018-08-07T03:37:01.111Z,7.47
2018-08-07T03:39:29.202Z,8.60
2018-08-07T03:41:57.287Z,7.90
2018-08-07T04:01:42.080Z,8.10
2018-08-07T04:04:10.218Z,8.50
2018-08-07T04:24:01.074Z,13.00
2018-08-07T04:26:29.895Z,13.20
2018-08-07T04:46:13.532Z,9.83
2018-08-07T04:48:41.585Z,7.73
2018-08-07T04:51:09.729Z,8.67
2018-08-07T04:53:37.843Z,9.60
2018-08-07T04:56:06.204Z,9.07
2018-08-07T04:58:34.569Z,8.87
2018-08-07T05:01:02.671Z,8.93
2018-08-07T05:03:30.779Z,8.77
2018-08-07T05:06:05.319Z,8.83
2018-08-07T05:08:33.750Z,8.83
2018-08-07T05:11:01.794Z,9.17
2018-08-07T05:13:29.955Z,9.27
2018-08-07T05:15:58.032Z,8.60
2018-08-07T05:18:26.209Z,8.30
2018-08-07T05:20:54.271Z,8.30
2018-08-07T05:23:22.366Z,9.40
2018-08-07T05:25:50.468Z,8.80
2018-08-07T05:28:18.703Z,8.20
2018-08-07T05:30:46.820Z,8.17
2018-08-07T05:33:14.935Z,10.03
2018-08-07T05:35:43.033Z,8.70
2018-08-07T05:38:11.755Z,8.57
2018-08-07T05:40:40.270Z,8.97
2018-08-07T05:43:08.399Z,8.83
2018-08-07T05:45:36.729Z,9.10
2018-08-07T05:48:05.254Z,9.13
2018-08-07T05:50:33.511Z,9.43
2018-08-07T05:53:01.635Z,8.90
2018-08-07T05:55:29.812Z,8.23
2018-08-07T05:57:57.936Z,8.57
2018-08-07T06:17:43.073Z,10.33
2018-08-07T06:20:11.793Z,9.27
2018-08-07T06:39:55.762Z,9.80
2018-08-07T06:42:24.201Z,10.37
2018-08-07T06:44:52.845Z,10.40
2018-08-07T06:47:21.132Z,9.40
2018-08-07T06:49:49.825Z,9.57
2018-08-07T06:52:18.028Z,9.63
2018-08-07T06:54:46.125Z,10.27
2018-08-07T06:57:14.332Z,9.07
2018-08-07T06:59:42.314Z,9.73
2018-08-07T07:02:10.419Z,9.10
2018-08-07T07:04:38.485Z,8.40
2018-08-07T07:07:06.993Z,9.70
2018-08-07T07:09:36.111Z,10.10
2018-08-07T07:12:04.083Z,8.53
2018-08-07T07:14:32.114Z,8.67
2018-08-07T07:17:00.222Z,8.63
2018-08-07T07:19:28.451Z,7.07
2018-08-07T07:21:56.546Z,7.40
2018-08-07T07:24:24.863Z,8.27
2018-08-07T07:26:52.911Z,8.60
2018-08-07T07:29:21.863Z,8.33
2018-08-07T07:49:06.110Z,8.13
2018-08-07T07:51:34.258Z,9.03
2018-08-07T07:54:02.480Z,7.93
2018-08-07T07:56:30.873Z,8.70
2018-08-07T07:58:58.985Z,8.87
2018-08-07T08:01:27.103Z,8.00
2018-08-07T08:03:55.963Z,8.47
2018-08-07T08:06:24.060Z,7.80
2018-08-07T08:08:53.639Z,8.10
2018-08-07T08:11:21.843Z,8.60
2018-08-07T08:13:50.023Z,7.90
2018-08-07T08:16:18.161Z,8.93
2018-08-07T08:18:46.395Z,8.50
2018-08-07T08:21:14.929Z,7.80
2018-08-07T08:23:43.204Z,8.57
2018-08-07T08:26:11.395Z,8.17
2018-08-07T08:28:39.540Z,8.97
2018-08-07T08:31:07.945Z,8.60
2018-08-07T08:33:36.036Z,7.50
2018-08-07T08:36:04.237Z,8.77
2018-08-07T08:38:32.964Z,7.90
2018-08-07T08:41:01.292Z,7.90
2018-08-07T08:43:29.927Z,8.50
2018-08-07T08:45:58.135Z,8.20
2018-08-07T08:48:26.350Z,7.80
2018-08-07T08:50:54.413Z,8.17
2018-08-07T08:53:22.742Z,8.70
2018-08-07T08:55:51.360Z,8.03
2018-08-07T08:58:19.500Z,8.07
2018-08-07T09:00:47.603Z,8.20
2018-08-07T09:03:15.765Z,8.70
2018-08-07T09:05:43.950Z,8.30
2018-08-07T09:08:12.407Z,8.30
2018-08-07T09:27:56.442Z,8.80
2018-08-07T09:30:26.081Z,9.13
2018-08-07T09:32:54.898Z,8.07
2018-08-07T09:35:23.503Z,9.17
2018-08-07T09:37:51.613Z,9.20
2018-08-07T09:40:20.837Z,8.33
2018-08-07T09:42:50.650Z,8.43
2018-08-07T09:45:25.271Z,8.80
2018-08-07T09:47:53.433Z,9.10
2018-08-07T09:50:22.028Z,9.33
2018-08-07T09:52:50.539Z,8.77
2018-08-07T09:55:18.705Z,8.73
2018-08-07T09:57:46.931Z,9.13
2018-08-07T10:00:24.558Z,9.00
2018-08-07T10:02:55.305Z,8.60
2018-08-07T10:05:25.041Z,8.13
2018-08-07T10:07:53.218Z,8.00
2018-08-07T10:10:21.595Z,8.40
2018-08-07T10:12:49.997Z,7.70
2018-08-07T10:15:19.163Z,8.67
2018-08-07T10:17:47.530Z,8.40
2018-08-07T10:20:15.919Z,7.60
2018-08-07T10:22:44.231Z,7.50
2018-08-07T10:42:28.303Z,7.60
2018-08-07T10:44:56.469Z,7.73
2018-08-07T10:47:25.068Z,7.17
2018-08-07T10:49:53.507Z,7.30
2018-08-07T10:52:21.790Z,7.17
2018-08-07T10:54:50.950Z,7.40
2018-08-07T10:57:19.075Z,6.30
2018-08-07T10:59:47.175Z,7.10
2018-08-07T11:02:15.298Z,7.43
2018-08-07T11:04:44.279Z,7.30
2018-08-07T11:07:12.354Z,7.10
2018-08-07T11:09:40.623Z,6.97
2018-08-07T11:12:08.809Z,7.23
2018-08-07T11:14:36.915Z,7.33
2018-08-07T11:17:05.077Z,6.40
2018-08-07T11:19:33.624Z,6.00
2018-08-07T11:22:01.844Z,6.50
2018-08-07T11:24:29.945Z,6.27
2018-08-07T11:26:58.219Z,6.17
2018-08-07T11:29:26.348Z,6.70
2018-08-07T11:31:54.438Z,6.27
2018-08-07T11:34:22.598Z,6.80
2018-08-07T11:54:07.578Z,6.30
2018-08-07T11:56:35.710Z,4.87
2018-08-07T11:59:10.800Z,6.00
2018-08-07T12:01:39.002Z,6.50
2018-08-07T12:04:07.105Z,6.77
2018-08-07T12:06:35.220Z,6.03
2018-08-07T12:09:03.491Z,6.80
2018-08-07T12:11:31.687Z,6.10
2018-08-07T12:14:00.949Z,6.30
2018-08-07T12:16:29.949Z,6.10
2018-08-07T12:18:58.530Z,6.03
2018-08-07T12:21:26.834Z,6.35
2018-08-07T12:23:55.127Z,6.20
2018-08-07T12:43:38.160Z,6.53
2018-08-07T12:46:07.808Z,5.92
2018-08-07T13:05:52.053Z,7.57
2018-08-07T13:08:20.174Z,8.00
2018-08-07T13:10:48.938Z,7.97
2018-08-07T13:13:17.114Z,8.30
2018-08-07T13:15:45.233Z,7.80
2018-08-07T13:18:13.395Z,8.23
2018-08-07T13:20:42.873Z,7.83
2018-08-07T13:23:10.990Z,8.60
2018-08-07T13:25:39.175Z,7.97
2018-08-07T13:28:07.705Z,8.43
2018-08-07T13:30:35.786Z,8.07
2018-08-07T13:33:04.226Z,9.00
2018-08-07T13:52:47.823Z,7.80
2018-08-07T13:55:17.175Z,7.87
2018-08-07T13:57:46.185Z,7.80
2018-08-07T14:17:30.458Z,8.90
2018-08-07T14:19:59.158Z,8.57
2018-08-07T14:22:28.448Z,8.30
2018-08-07T14:24:57.110Z,8.00
2018-08-07T14:27:25.531Z,7.87
2018-08-07T14:29:53.833Z,8.37
2018-08-07T14:32:21.937Z,8.83
2018-08-07T14:34:50.410Z,8.40
2018-08-07T14:37:18.855Z,7.97
2018-08-07T14:39:47.098Z,8.40
2018-08-07T14:42:15.428Z,9.23
2018-08-07T14:44:43.570Z,10.40
2018-08-07T14:47:11.639Z,9.40
2018-08-07T14:49:39.798Z,9.20
2018-08-07T15:09:23.923Z,7.57
2018-08-07T15:11:53.602Z,7.50
2018-08-07T15:14:21.734Z,9.07
2018-08-07T15:16:50.351Z,8.00
2018-08-07T15:19:18.486Z,8.93
2018-08-07T15:21:46.614Z,9.27
2018-08-07T15:24:14.884Z,8.77
2018-08-07T15:26:43.092Z,8.20
2018-08-07T15:29:11.152Z,8.93
2018-08-07T15:31:39.300Z,8.53
2018-08-07T15:34:07.996Z,9.17
2018-08-07T15:36:36.077Z,8.47
2018-08-07T15:39:06.819Z,8.23
2018-08-07T15:41:34.971Z,9.07
2018-08-07T15:44:03.529Z,8.00
2018-08-07T15:46:31.596Z,7.83
2018-08-07T15:48:59.674Z,8.07
2018-08-07T15:51:27.783Z,7.73
2018-08-07T15:53:56.123Z,7.60
2018-08-07T15:56:24.548Z,7.07
2018-08-07T15:58:52.736Z,6.50
2018-08-07T16:01:21.839Z,7.40
2018-08-07T16:21:05.806Z,7.30
2018-08-07T16:49:27.459Z,6.53
2018-08-07T16:51:55.736Z,5.27
2018-08-07T16:54:23.875Z,6.93
2018-08-07T16:56:52.009Z,5.93
2018-08-07T16:59:20.175Z,5.70
2018-08-07T17:01:48.433Z,5.00
2018-08-07T17:04:16.914Z,4.80
2018-08-07T17:06:45.252Z,5.27
2018-08-07T17:09:13.880Z,4.97
2018-08-07T17:11:42.142Z,5.23
2018-08-07T17:14:10.273Z,7.87
2018-08-07T17:16:38.368Z,4.90
2018-08-07T17:36:22.322Z,4.43
2018-08-07T17:38:50.522Z,4.27
2018-08-07T17:41:18.718Z,4.10
2018-08-07T17:43:47.326Z,4.70
2018-08-07T17:46:15.741Z,4.50
2018-08-07T17:48:44.303Z,4.37
2018-08-07T17:51:14.027Z,4.27
2018-08-07T17:53:43.118Z,4.40
2018-08-07T17:56:11.310Z,3.90
2018-08-07T17:58:40.181Z,4.47
2018-08-07T18:01:08.315Z,4.10
2018-08-07T18:03:36.563Z,3.73
2018-08-07T18:06:04.827Z,4.43
2018-08-07T18:08:33.029Z,4.30
2018-08-07T18:11:01.187Z,3.90
2018-08-07T18:30:44.877Z,4.13
2018-08-07T18:33:13.052Z,4.30
2018-08-07T18:35:41.174Z,4.67
2018-08-07T18:38:09.282Z,4.30
2018-08-07T18:40:37.410Z,4.03
2018-08-07T18:43:05.874Z,4.53
2018-08-07T18:45:33.971Z,4.50
2018-08-07T18:48:02.491Z,4.43
2018-08-07T18:50:30.958Z,4.60
2018-08-07T18:52:59.376Z,3.97
2018-08-07T18:55:27.709Z,5.30
2018-08-07T19:15:12.841Z,4.97
2018-08-07T19:17:41.142Z,5.03
2018-08-07T19:20:11.393Z,5.10
2018-08-07T19:22:40.136Z,4.33
2018-08-07T19:25:09.236Z,4.73
2018-08-07T19:27:37.960Z,5.23
2018-08-07T19:30:08.418Z,4.67
2018-08-07T19:32:36.590Z,4.67
2018-08-07T19:52:20.940Z,4.93
2018-08-07T19:54:50.152Z,5.20
2018-08-07T19:57:18.250Z,4.53
2018-08-07T19:59:47.163Z,5.80
2018-08-07T20:19:32.085Z,4.60
2018-08-07T20:39:16.015Z,4.63
2018-08-07T20:41:44.802Z,5.30
2018-08-07T20:44:12.989Z,5.17
2018-08-07T21:03:57.414Z,4.83
2018-08-07T21:06:26.121Z,5.30
2018-08-07T21:08:55.577Z,5.00
2018-08-07T21:11:24.638Z,4.90
2018-08-07T21:13:53.061Z,4.80
2018-08-07T21:16:21.508Z,4.87
2018-08-07T21:18:49.582Z,4.77
2018-08-07T21:21:17.722Z,4.77
2018-08-07T21:23:46.138Z,5.37
2018-08-07T21:26:14.485Z,4.80
2018-08-07T21:28:42.899Z,4.60
2018-08-07T21:48:26.992Z,4.37
2018-08-07T21:50:55.906Z,4.10
2018-08-07T21:53:24.582Z,4.60
2018-08-07T22:13:09.486Z,5.00
2018-08-07T22:15:37.747Z,4.43
2018-08-07T22:35:21.937Z,4.43
2018-08-07T22:37:51.462Z,4.67
2018-08-07T22:40:20.167Z,4.80
2018-08-07T22:42:49.286Z,4.03
2018-08-07T22:45:18.890Z,4.10
2018-08-07T22:47:47.933Z,4.47
2018-08-07T22:50:17.470Z,4.83
2018-08-07T23:10:00.759Z,5.20
2018-08-07T23:12:28.869Z,4.73
2018-08-07T23:14:57.171Z,4.63
2018-08-07T23:17:25.840Z,4.53
2018-08-07T23:37:10.297Z,5.80
2018-08-07T23:39:38.732Z,5.40
2018-08-07T23:42:07.023Z,5.17
2018-08-07T23:44:36.745Z,4.90
2018-08-07T23:47:05.329Z,5.77
2018-08-07T23:49:33.733Z,5.23
2018-08-07T23:52:02.007Z,4.93
2018-08-07T23:54:30.982Z,4.50
2018-08-07T23:56:59.322Z,5.57
2018-08-07T23:59:27.523Z,4.70
